Time;durP1;ratioP1;P1;durP2;ratioP2;P2;SDS_P1;SDS_P2;PMS_P1;PMS_P2;Temp;Humidity;BMP_temperature;BMP_pressure;BME280_temperature;BME280_humidity;BME280_pressure;Samples;Min_cycle;Max_cycle;Signal;HPM_P1;HPM_P2
2020/12/14 00:01:18;;;;;;;72.23;37.13;;;;;;;;;;4905180;29;20870;-61
2020/12/14 00:03:43;;;;;;;66.90;34.43;;;;;;;;;;4907079;29;20216;-61
2020/12/14 00:06:08;;;;;;;62.23;35.67;;;;;;;;;;4905463;29;20195;-59
2020/12/14 00:08:34;;;;;;;63.67;36.43;;;;;;;;;;4906727;29;20267;-59
2020/12/14 00:10:59;;;;;;;64.90;33.93;;;;;;;;;;4907305;29;20259;-59
2020/12/14 00:13:24;;;;;;;60.23;35.47;;;;;;;;;;4906598;29;20235;-59
2020/12/14 00:15:50;;;;;;;63.87;36.43;;;;;;;;;;4905012;29;20270;-59
2020/12/14 00:18:15;;;;;;;72.30;36.33;;;;;;;;;;4905952;29;20228;-59
2020/12/14 00:20:40;;;;;;;73.57;35.60;;;;;;;;;;4906439;29;20261;-59
2020/12/14 00:23:06;;;;;;;72.13;35.60;;;;;;;;;;4906543;29;20779;-59
2020/12/14 00:25:31;;;;;;;78.10;35.93;;;;;;;;;;4905338;29;20843;-59
2020/12/14 00:27:56;;;;;;;67.70;34.40;;;;;;;;;;4906530;29;20224;-59
2020/12/14 00:30:21;;;;;;;67.53;35.53;;;;;;;;;;4906154;29;20193;-59
2020/12/14 00:32:47;;;;;;;68.50;36.70;;;;;;;;;;4906041;29;20223;-59
2020/12/14 00:35:12;;;;;;;65.40;34.57;;;;;;;;;;4905129;29;20208;-59
2020/12/14 00:37:37;;;;;;;78.93;34.93;;;;;;;;;;4905968;29;20223;-59
2020/12/14 00:40:03;;;;;;;74.43;34.73;;;;;;;;;;4906173;29;20186;-59
2020/12/14 00:42:28;;;;;;;73.27;34.53;;;;;;;;;;4905747;29;21041;-59
2020/12/14 00:44:54;;;;;;;70.20;35.77;;;;;;;;;;4905711;29;20221;-59
2020/12/14 00:47:19;;;;;;;66.83;34.60;;;;;;;;;;4905262;29;20243;-59
2020/12/14 00:49:44;;;;;;;78.30;35.50;;;;;;;;;;4904672;29;20196;-59
2020/12/14 00:52:09;;;;;;;103.90;33.53;;;;;;;;;;4904261;29;20212;-59
2020/12/14 00:54:35;;;;;;;73.63;32.50;;;;;;;;;;4906206;29;20247;-59
2020/12/14 00:57:00;;;;;;;84.03;32.63;;;;;;;;;;4904203;29;20216;-60
2020/12/14 00:59:26;;;;;;;63.57;31.83;;;;;;;;;;4905791;29;20822;-59
2020/12/14 01:01:52;;;;;;;57.03;30.63;;;;;;;;;;4901273;29;20198;-59
2020/12/14 01:04:18;;;;;;;75.13;31.93;;;;;;;;;;4905111;29;20230;-59
2020/12/14 01:06:44;;;;;;;85.23;31.20;;;;;;;;;;4904622;29;20216;-59
2020/12/14 01:09:09;;;;;;;128.47;31.60;;;;;;;;;;4905652;29;20194;-59
2020/12/14 01:11:34;;;;;;;49.80;27.80;;;;;;;;;;4904304;29;20211;-59
2020/12/14 01:13:59;;;;;;;56.13;28.50;;;;;;;;;;4905380;29;20254;-59
2020/12/14 01:16:25;;;;;;;64.80;30.50;;;;;;;;;;4903741;29;20284;-59
2020/12/14 01:18:50;;;;;;;53.07;27.77;;;;;;;;;;4905153;29;20360;-59
2020/12/14 01:21:19;;;;;;;77.27;26.90;;;;;;;;;;4905163;29;20196;-59
2020/12/14 01:23:44;;;;;;;68.20;24.47;;;;;;;;;;4905165;29;20234;-59
2020/12/14 01:26:10;;;;;;;57.47;24.60;;;;;;;;;;4903495;29;20190;-60
2020/12/14 01:28:35;;;;;;;53.70;24.53;;;;;;;;;;4904540;29;20193;-59
2020/12/14 01:31:00;;;;;;;55.20;25.27;;;;;;;;;;4904832;29;20184;-59
2020/12/14 01:33:26;;;;;;;52.57;25.10;;;;;;;;;;4904957;29;20203;-59
2020/12/14 01:35:51;;;;;;;53.00;24.00;;;;;;;;;;4904273;29;20203;-60
2020/12/14 01:38:16;;;;;;;64.60;23.13;;;;;;;;;;4904441;29;20217;-59
2020/12/14 01:40:42;;;;;;;59.00;25.00;;;;;;;;;;4905238;29;20248;-59
2020/12/14 01:43:07;;;;;;;47.70;23.67;;;;;;;;;;4905429;29;20762;-59
2020/12/14 01:45:32;;;;;;;88.30;24.30;;;;;;;;;;4905179;29;20716;-59
2020/12/14 01:48:00;;;;;;;90.10;24.80;;;;;;;;;;4898730;29;20300;-59
2020/12/14 01:50:26;;;;;;;74.00;25.30;;;;;;;;;;4905456;29;20195;-59
2020/12/14 01:52:52;;;;;;;50.70;26.33;;;;;;;;;;4905472;29;20197;-59
2020/12/14 01:55:18;;;;;;;91.40;25.00;;;;;;;;;;4903182;29;20246;-59
2020/12/14 01:57:43;;;;;;;50.60;23.57;;;;;;;;;;4905301;29;20217;-59
2020/12/14 02:00:12;;;;;;;81.63;25.17;;;;;;;;;;4904798;29;20247;-59
2020/12/14 02:02:37;;;;;;;68.27;23.33;;;;;;;;;;4904587;29;20314;-59
2020/12/14 02:05:04;;;;;;;74.80;25.07;;;;;;;;;;4903234;29;20305;-59
2020/12/14 02:07:29;;;;;;;115.90;25.60;;;;;;;;;;4903707;29;20213;-59
2020/12/14 02:09:55;;;;;;;61.73;23.80;;;;;;;;;;4903855;29;20193;-59
2020/12/14 02:12:24;;;;;;;80.83;23.83;;;;;;;;;;4903639;29;21024;-58
2020/12/14 02:14:53;;;;;;;51.83;23.27;;;;;;;;;;4904123;29;20728;-59
2020/12/14 02:17:19;;;;;;;56.90;23.73;;;;;;;;;;4903203;29;20212;-59
2020/12/14 02:19:45;;;;;;;64.67;25.03;;;;;;;;;;4904072;29;20560;-59
2020/12/14 02:22:10;;;;;;;51.63;23.27;;;;;;;;;;4902584;29;20181;-60
2020/12/14 02:24:35;;;;;;;49.07;23.27;;;;;;;;;;4903264;29;20257;-59
2020/12/14 02:27:01;;;;;;;48.87;24.27;;;;;;;;;;4903664;29;20212;-59
2020/12/14 02:29:26;;;;;;;47.97;23.13;;;;;;;;;;4904059;29;20613;-59
2020/12/14 02:31:51;;;;;;;49.30;23.57;;;;;;;;;;4904447;29;20678;-59
2020/12/14 02:34:16;;;;;;;48.77;22.90;;;;;;;;;;4904243;29;20229;-59
2020/12/14 02:36:42;;;;;;;52.10;23.70;;;;;;;;;;4903096;29;20783;-59
2020/12/14 02:39:07;;;;;;;49.10;24.30;;;;;;;;;;4904254;29;20195;-61
2020/12/14 02:41:32;;;;;;;44.73;22.97;;;;;;;;;;4904401;29;20197;-61
2020/12/14 02:43:58;;;;;;;41.77;22.30;;;;;;;;;;4903982;29;20237;-61
2020/12/14 02:46:23;;;;;;;38.93;22.03;;;;;;;;;;4903194;29;20197;-61
2020/12/14 02:48:49;;;;;;;38.97;22.13;;;;;;;;;;4903298;29;20198;-61
2020/12/14 02:51:18;;;;;;;43.13;22.93;;;;;;;;;;4902448;29;20202;-61
2020/12/14 02:53:43;;;;;;;33.13;22.23;;;;;;;;;;4904247;29;20201;-60
2020/12/14 02:56:08;;;;;;;36.90;21.70;;;;;;;;;;4902758;29;20183;-60
2020/12/14 02:58:34;;;;;;;28.23;20.63;;;;;;;;;;4903899;29;20260;-60
2020/12/14 03:00:59;;;;;;;45.23;21.53;;;;;;;;;;4903537;29;20193;-61
2020/12/14 03:03:24;;;;;;;34.73;21.73;;;;;;;;;;4903929;29;20814;-59
2020/12/14 03:05:50;;;;;;;32.40;21.43;;;;;;;;;;4902861;29;20192;-59
2020/12/14 03:08:15;;;;;;;30.63;20.97;;;;;;;;;;4899747;29;20335;-59
2020/12/14 03:10:40;;;;;;;32.97;20.17;;;;;;;;;;4898267;29;20285;-59
2020/12/14 03:13:06;;;;;;;33.77;21.13;;;;;;;;;;4903658;29;20703;-59
2020/12/14 03:15:31;;;;;;;31.70;20.80;;;;;;;;;;4902803;29;20179;-59
2020/12/14 03:17:56;;;;;;;30.23;21.17;;;;;;;;;;4902229;29;20227;-59
2020/12/14 03:20:21;;;;;;;25.80;19.93;;;;;;;;;;4903797;29;20741;-59
2020/12/14 03:22:47;;;;;;;29.17;21.03;;;;;;;;;;4902839;29;20209;-59
2020/12/14 03:25:12;;;;;;;31.47;21.13;;;;;;;;;;4903024;29;20662;-59
2020/12/14 03:27:37;;;;;;;28.97;21.30;;;;;;;;;;4903857;29;20222;-58
2020/12/14 03:30:03;;;;;;;34.50;22.77;;;;;;;;;;4903664;29;20189;-59
2020/12/14 03:32:28;;;;;;;32.07;21.13;;;;;;;;;;4903535;29;20712;-58
2020/12/14 03:34:53;;;;;;;28.87;21.60;;;;;;;;;;4902918;29;20291;-59
2020/12/14 03:37:19;;;;;;;29.30;21.17;;;;;;;;;;4896726;29;20256;-59
2020/12/14 03:39:44;;;;;;;26.67;20.53;;;;;;;;;;4904133;29;20192;-59
2020/12/14 03:42:09;;;;;;;32.87;20.80;;;;;;;;;;4903539;29;20258;-59
2020/12/14 03:44:35;;;;;;;32.20;20.57;;;;;;;;;;4903498;29;20760;-59
2020/12/14 03:47:00;;;;;;;26.63;20.83;;;;;;;;;;4902191;29;20208;-59
2020/12/14 03:49:25;;;;;;;32.67;20.13;;;;;;;;;;4905027;29;20652;-59
2020/12/14 03:51:50;;;;;;;27.93;20.83;;;;;;;;;;4907111;29;20269;-59
2020/12/14 03:54:21;;;;;;;25.63;19.13;;;;;;;;;;4906629;29;20191;-59
2020/12/14 03:56:46;;;;;;;30.17;20.63;;;;;;;;;;4905944;29;20244;-59
2020/12/14 03:59:12;;;;;;;27.13;20.50;;;;;;;;;;4906159;29;20329;-59
2020/12/14 04:01:37;;;;;;;33.60;22.07;;;;;;;;;;4906836;29;20852;-59
2020/12/14 04:04:02;;;;;;;31.20;19.27;;;;;;;;;;4907029;29;20252;-59
2020/12/14 04:06:27;;;;;;;27.27;20.80;;;;;;;;;;4905784;29;20664;-59
2020/12/14 04:08:53;;;;;;;24.87;19.93;;;;;;;;;;4906561;29;20722;-59
2020/12/14 04:11:19;;;;;;;25.27;20.13;;;;;;;;;;4906173;29;20219;-59
2020/12/14 04:13:46;;;;;;;25.10;19.97;;;;;;;;;;4906638;29;21014;-59
2020/12/14 04:16:12;;;;;;;25.70;19.77;;;;;;;;;;4905415;29;20221;-61
2020/12/14 04:18:37;;;;;;;23.43;18.00;;;;;;;;;;4906183;29;20300;-58
2020/12/14 04:21:03;;;;;;;22.63;18.30;;;;;;;;;;4905812;29;20222;-59
2020/12/14 04:23:28;;;;;;;24.03;18.97;;;;;;;;;;4906271;29;20899;-61
2020/12/14 04:25:54;;;;;;;25.83;18.60;;;;;;;;;;4905491;29;20204;-59
2020/12/14 04:28:19;;;;;;;23.50;18.03;;;;;;;;;;4905972;29;20219;-59
2020/12/14 04:30:44;;;;;;;21.73;17.93;;;;;;;;;;4913557;29;20196;-59
2020/12/14 04:33:10;;;;;;;19.97;16.43;;;;;;;;;;4905298;29;20188;-59
2020/12/14 04:35:35;;;;;;;20.57;16.30;;;;;;;;;;4904556;29;20198;-61
2020/12/14 04:38:00;;;;;;;21.20;17.47;;;;;;;;;;4905444;29;20277;-61
2020/12/14 04:40:27;;;;;;;20.13;16.30;;;;;;;;;;4905315;29;20230;-61
2020/12/14 04:42:52;;;;;;;19.30;16.43;;;;;;;;;;4904988;29;20216;-61
2020/12/14 04:45:19;;;;;;;20.70;16.30;;;;;;;;;;4904354;29;20617;-61
2020/12/14 04:47:44;;;;;;;20.43;16.27;;;;;;;;;;4905120;29;20260;-60
2020/12/14 04:50:10;;;;;;;17.53;14.80;;;;;;;;;;4905139;29;20648;-61
2020/12/14 04:52:36;;;;;;;18.27;16.20;;;;;;;;;;4904673;29;20191;-60
2020/12/14 04:55:02;;;;;;;20.43;15.93;;;;;;;;;;4902860;29;20197;-60
2020/12/14 04:57:30;;;;;;;18.30;14.90;;;;;;;;;;4905226;29;20212;-61
2020/12/14 04:59:55;;;;;;;18.70;16.00;;;;;;;;;;4900216;29;20820;-60
2020/12/14 05:02:21;;;;;;;19.30;15.83;;;;;;;;;;4901859;29;20214;-61
2020/12/14 05:04:46;;;;;;;19.07;16.33;;;;;;;;;;4898854;29;20600;-61
2020/12/14 05:07:15;;;;;;;19.00;15.87;;;;;;;;;;4904009;29;20216;-61
2020/12/14 05:09:41;;;;;;;16.93;15.00;;;;;;;;;;4919213;29;20196;-60
2020/12/14 05:12:16;;;;;;;18.47;14.90;;;;;;;;;;4904270;29;20221;-61
2020/12/14 05:14:41;;;;;;;18.27;15.00;;;;;;;;;;4904781;29;20714;-60
2020/12/14 05:17:14;;;;;;;17.63;14.97;;;;;;;;;;4903723;29;20223;-60
2020/12/14 05:19:39;;;;;;;17.50;14.80;;;;;;;;;;4904761;29;20682;-61
2020/12/14 05:22:04;;;;;;;16.73;14.97;;;;;;;;;;4903935;29;20197;-61
2020/12/14 05:24:30;;;;;;;18.33;15.60;;;;;;;;;;4897620;29;20323;-61
2020/12/14 05:26:56;;;;;;;15.50;13.57;;;;;;;;;;4902248;29;20223;-61
2020/12/14 05:29:30;;;;;;;16.90;14.97;;;;;;;;;;4904324;29;20199;-60
2020/12/14 05:32:09;;;;;;;16.93;14.37;;;;;;;;;;4904543;29;20250;-60
2020/12/14 05:34:37;;;;;;;16.33;13.97;;;;;;;;;;4904343;29;20195;-61
2020/12/14 05:37:04;;;;;;;16.07;13.70;;;;;;;;;;4902915;29;20243;-61
2020/12/14 05:39:29;;;;;;;17.80;15.13;;;;;;;;;;4904019;29;20201;-60
2020/12/14 05:42:30;;;;;;;15.93;14.23;;;;;;;;;;4904100;29;20188;-61
2020/12/14 05:44:55;;;;;;;15.67;13.80;;;;;;;;;;4856206;29;20713;-61
2020/12/14 05:47:25;;;;;;;17.03;14.00;;;;;;;;;;4894257;29;20261;-61
2020/12/14 05:49:51;;;;;;;14.70;13.10;;;;;;;;;;4903917;29;20207;-60
2020/12/14 05:52:17;;;;;;;14.63;13.13;;;;;;;;;;4903429;29;20202;-60
2020/12/14 05:54:48;;;;;;;14.20;12.80;;;;;;;;;;4904383;29;20283;-60
2020/12/14 05:57:14;;;;;;;15.10;13.50;;;;;;;;;;4897402;29;20281;-60
2020/12/14 05:59:41;;;;;;;16.10;13.77;;;;;;;;;;4905169;29;20696;-60
2020/12/14 06:02:06;;;;;;;15.17;13.30;;;;;;;;;;4904568;29;20193;-60
2020/12/14 06:04:32;;;;;;;15.73;12.83;;;;;;;;;;4904442;29;20224;-60
2020/12/14 06:07:01;;;;;;;14.00;12.23;;;;;;;;;;4903938;29;20227;-61
2020/12/14 06:09:28;;;;;;;13.43;12.10;;;;;;;;;;4903516;29;20190;-61
2020/12/14 06:11:58;;;;;;;14.03;12.57;;;;;;;;;;4888348;29;20193;-61
2020/12/14 06:14:24;;;;;;;14.60;13.10;;;;;;;;;;4885192;29;20667;-60
2020/12/14 06:16:51;;;;;;;14.27;12.77;;;;;;;;;;4890639;29;20213;-61
2020/12/14 06:19:17;;;;;;;14.53;12.50;;;;;;;;;;4891459;29;20296;-60
2020/12/14 06:22:09;;;;;;;13.90;12.37;;;;;;;;;;4889866;29;20599;-61
2020/12/14 06:24:34;;;;;;;15.33;12.77;;;;;;;;;;4887232;29;20230;-60
2020/12/14 06:27:01;;;;;;;14.33;12.07;;;;;;;;;;4888418;29;20206;-61
2020/12/14 06:29:30;;;;;;;14.37;12.87;;;;;;;;;;4900874;29;20198;-60
2020/12/14 06:31:55;;;;;;;12.33;11.03;;;;;;;;;;4892296;29;20196;-60
2020/12/14 06:34:32;;;;;;;12.90;11.60;;;;;;;;;;4892408;29;20191;-60
2020/12/14 06:37:01;;;;;;;12.97;11.53;;;;;;;;;;4888123;29;20329;-60
2020/12/14 06:39:31;;;;;;;12.63;10.83;;;;;;;;;;4893493;29;20509;-60
2020/12/14 06:42:08;;;;;;;12.63;11.33;;;;;;;;;;4892959;29;20720;-60
2020/12/14 06:44:43;;;;;;;11.70;10.53;;;;;;;;;;4895961;29;20211;-60
2020/12/14 06:47:12;;;;;;;11.70;10.60;;;;;;;;;;4885723;29;20209;-60
2020/12/14 06:49:37;;;;;;;11.63;10.43;;;;;;;;;;4889000;29;20187;-61
2020/12/14 06:52:02;;;;;;;11.60;10.43;;;;;;;;;;4901704;29;20750;-60
2020/12/14 06:54:46;;;;;;;11.77;10.57;;;;;;;;;;4892734;29;20236;-61
2020/12/14 06:57:16;;;;;;;10.90;9.80;;;;;;;;;;4885292;29;20587;-60
2020/12/14 06:59:51;;;;;;;11.20;10.00;;;;;;;;;;4891933;29;20267;-61
2020/12/14 07:02:16;;;;;;;11.35;10.25;;;;;;;;;;4893920;29;20206;-61
2020/12/14 07:04:42;;;;;;;17.47;15.73;;;;;;;;;;4896373;29;20439;-61
2020/12/14 07:07:10;;;;;;;15.02;13.63;;;;;;;;;;4883514;29;20291;-60
2020/12/14 07:09:37;;;;;;;13.87;12.57;;;;;;;;;;4886358;29;20773;-61
2020/12/14 07:12:08;;;;;;;14.10;11.23;;;;;;;;;;4887015;29;20188;-60
2020/12/14 07:14:33;;;;;;;11.17;10.03;;;;;;;;;;4888184;29;20670;-60
2020/12/14 07:17:01;;;;;;;11.60;10.50;;;;;;;;;;4887777;29;20221;-60
2020/12/14 07:19:36;;;;;;;14.20;10.57;;;;;;;;;;4885399;29;20202;-61
2020/12/14 07:22:02;;;;;;;11.93;10.73;;;;;;;;;;4888060;29;20199;-61
2020/12/14 07:24:32;;;;;;;10.33;9.33;;;;;;;;;;4889409;29;20208;-61
2020/12/14 07:26:58;;;;;;;12.37;11.03;;;;;;;;;;4893746;29;20214;-61
2020/12/14 07:29:23;;;;;;;11.60;10.40;;;;;;;;;;4889752;29;20195;-60
2020/12/14 07:31:48;;;;;;;11.00;9.93;;;;;;;;;;4894477;29;20237;-60
2020/12/14 07:34:15;;;;;;;10.60;9.50;;;;;;;;;;4890610;29;20224;-60
2020/12/14 07:36:41;;;;;;;10.90;9.80;;;;;;;;;;4897542;29;20219;-61
2020/12/14 07:39:06;;;;;;;11.53;10.33;;;;;;;;;;4890541;29;20548;-60
2020/12/14 07:41:32;;;;;;;11.37;10.27;;;;;;;;;;4894908;29;20189;-61
2020/12/14 07:43:58;;;;;;;11.40;9.43;;;;;;;;;;4889907;29;20215;-61
2020/12/14 07:46:27;;;;;;;11.27;9.70;;;;;;;;;;4889470;29;21098;-61
2020/12/14 07:48:53;;;;;;;11.17;9.87;;;;;;;;;;4898524;29;20199;-61
2020/12/14 07:51:19;;;;;;;11.57;9.90;;;;;;;;;;4897518;29;20185;-60
2020/12/14 07:53:45;;;;;;;10.60;9.50;;;;;;;;;;4893423;29;20234;-60
2020/12/14 07:56:10;;;;;;;11.03;9.93;;;;;;;;;;4896438;29;20275;-61
2020/12/14 07:58:43;;;;;;;11.13;9.97;;;;;;;;;;4894078;29;20210;-61
2020/12/14 08:01:15;;;;;;;10.93;9.87;;;;;;;;;;4895939;29;20203;-61
2020/12/14 08:03:40;;;;;;;12.07;10.87;;;;;;;;;;4893151;29;20211;-61
2020/12/14 08:06:16;;;;;;;11.93;10.57;;;;;;;;;;4896235;29;20906;-61
2020/12/14 08:08:43;;;;;;;12.80;10.07;;;;;;;;;;4892244;29;20209;-61
2020/12/14 08:11:09;;;;;;;14.87;11.03;;;;;;;;;;4898696;29;20197;-61
2020/12/14 08:13:35;;;;;;;11.93;10.67;;;;;;;;;;4895566;29;20285;-60
2020/12/14 08:16:02;;;;;;;13.13;10.67;;;;;;;;;;4886350;29;20242;-63
2020/12/14 08:18:27;;;;;;;10.83;9.67;;;;;;;;;;4889340;29;20238;-61
2020/12/14 08:20:53;;;;;;;11.27;9.80;;;;;;;;;;4887495;29;20229;-61
2020/12/14 08:23:19;;;;;;;10.90;9.80;;;;;;;;;;4895128;29;20208;-62
2020/12/14 08:25:49;;;;;;;11.33;10.20;;;;;;;;;;4896116;29;20267;-63
2020/12/14 08:28:15;;;;;;;12.80;10.13;;;;;;;;;;4902804;29;20809;-60
2020/12/14 08:30:40;;;;;;;10.15;9.18;;;;;;;;;;4893201;29;20185;-60
2020/12/14 08:33:05;;;;;;;12.63;9.45;;;;;;;;;;4887625;29;20692;-60
2020/12/14 08:35:31;;;;;;;10.77;9.38;;;;;;;;;;4884354;29;20208;-60
2020/12/14 08:38:00;;;;;;;12.35;10.32;;;;;;;;;;4886014;29;20231;-61
2020/12/14 08:40:26;;;;;;;11.63;9.93;;;;;;;;;;4885847;29;20196;-60
2020/12/14 08:42:51;;;;;;;12.20;9.93;;;;;;;;;;4886046;29;20188;-59
2020/12/14 08:45:17;;;;;;;11.83;9.80;;;;;;;;;;4885004;29;20268;-60
2020/12/14 08:47:43;;;;;;;10.45;9.35;;;;;;;;;;4885437;29;20842;-61
2020/12/14 08:50:09;;;;;;;11.18;9.90;;;;;;;;;;4895649;29;20848;-61
2020/12/14 08:52:35;;;;;;;11.30;9.95;;;;;;;;;;4899211;29;20184;-61
2020/12/14 08:55:00;;;;;;;12.68;10.13;;;;;;;;;;4902239;29;21014;-61
2020/12/14 08:57:29;;;;;;;10.75;9.65;;;;;;;;;;4893192;29;20219;-60
2020/12/14 09:00:05;;;;;;;12.30;9.35;;;;;;;;;;4892143;29;20202;-61
2020/12/14 09:02:31;;;;;;;11.20;9.98;;;;;;;;;;4906816;29;20837;-61
2020/12/14 09:04:57;;;;;;;10.55;9.45;;;;;;;;;;4893785;29;20208;-61
2020/12/14 09:07:26;;;;;;;11.10;9.63;;;;;;;;;;4906156;29;20903;-60
2020/12/14 09:09:52;;;;;;;11.00;9.80;;;;;;;;;;4898081;29;20185;-61
2020/12/14 09:12:17;;;;;;;10.50;9.50;;;;;;;;;;4888159;29;20263;-60
2020/12/14 09:14:43;;;;;;;10.83;9.73;;;;;;;;;;4884981;29;20207;-60
2020/12/14 09:17:28;;;;;;;9.77;8.73;;;;;;;;;;4890979;29;20261;-61
2020/12/14 09:19:53;;;;;;;10.70;9.40;;;;;;;;;;4882255;29;20197;-61
2020/12/14 09:22:22;;;;;;;11.50;9.52;;;;;;;;;;4900150;29;20199;-61
2020/12/14 09:24:47;;;;;;;13.63;9.77;;;;;;;;;;4886212;29;20193;-60
2020/12/14 09:27:16;;;;;;;9.80;8.80;;;;;;;;;;4886544;29;20767;-60
2020/12/14 09:29:42;;;;;;;10.23;8.85;;;;;;;;;;4886055;29;20239;-61
2020/12/14 09:32:09;;;;;;;10.00;8.88;;;;;;;;;;4893632;29;20187;-61
2020/12/14 09:34:34;;;;;;;11.73;8.77;;;;;;;;;;4895420;29;20200;-60
2020/12/14 09:37:00;;;;;;;10.73;9.10;;;;;;;;;;4889458;29;20216;-60
2020/12/14 09:39:28;;;;;;;10.15;8.32;;;;;;;;;;4883787;29;20193;-60
2020/12/14 09:41:55;;;;;;;12.20;8.90;;;;;;;;;;4898371;29;20196;-59
2020/12/14 09:44:20;;;;;;;10.52;8.95;;;;;;;;;;4894702;29;20216;-60
2020/12/14 09:46:46;;;;;;;9.85;7.70;;;;;;;;;;4893614;29;20225;-61
2020/12/14 09:49:11;;;;;;;9.90;8.63;;;;;;;;;;4891300;29;20189;-60
2020/12/14 09:51:37;;;;;;;11.13;9.25;;;;;;;;;;4885403;29;20208;-61
2020/12/14 09:54:03;;;;;;;10.90;9.43;;;;;;;;;;4891772;29;20211;-60
2020/12/14 09:56:28;;;;;;;11.15;8.75;;;;;;;;;;4875509;29;20239;-61
2020/12/14 09:58:53;;;;;;;10.63;9.10;;;;;;;;;;4882583;29;20284;-60
2020/12/14 10:01:19;;;;;;;11.60;8.55;;;;;;;;;;4891702;29;20189;-60
2020/12/14 10:03:44;;;;;;;12.20;9.23;;;;;;;;;;4896124;29;21023;-61
2020/12/14 10:06:10;;;;;;;13.30;8.80;;;;;;;;;;4892153;29;20605;-60
2020/12/14 10:08:36;;;;;;;12.32;10.80;;;;;;;;;;4902216;29;20205;-60
2020/12/14 10:11:01;;;;;;;11.03;9.70;;;;;;;;;;4884771;29;20985;-60
2020/12/14 10:13:26;;;;;;;11.33;9.30;;;;;;;;;;4886482;29;20283;-60
2020/12/14 10:15:52;;;;;;;11.63;9.10;;;;;;;;;;4883574;29;20952;-60
2020/12/14 10:18:18;;;;;;;11.20;9.30;;;;;;;;;;4886678;29;20222;-60
2020/12/14 10:20:43;;;;;;;12.30;9.47;;;;;;;;;;4896215;29;20209;-60
2020/12/14 10:23:09;;;;;;;11.63;9.13;;;;;;;;;;4891339;29;20219;-61
2020/12/14 10:25:35;;;;;;;11.97;9.57;;;;;;;;;;4884577;29;20225;-60
2020/12/14 10:28:01;;;;;;;13.30;10.13;;;;;;;;;;4892995;29;20219;-60
2020/12/14 10:30:26;;;;;;;10.27;8.43;;;;;;;;;;4897978;29;20300;-61
2020/12/14 10:32:51;;;;;;;10.93;9.50;;;;;;;;;;4891457;29;20230;-61
2020/12/14 10:35:17;;;;;;;10.85;8.73;;;;;;;;;;4900823;29;20200;-61
2020/12/14 10:37:42;;;;;;;11.35;8.50;;;;;;;;;;4890157;29;20224;-60
2020/12/14 10:40:08;;;;;;;19.50;9.17;;;;;;;;;;4898992;29;20184;-63
2020/12/14 10:42:33;;;;;;;12.93;9.38;;;;;;;;;;4891902;29;20856;-63
2020/12/14 10:44:59;;;;;;;10.18;7.22;;;;;;;;;;4891749;29;20212;-62
2020/12/14 10:47:25;;;;;;;11.20;8.43;;;;;;;;;;4885362;29;20248;-62
2020/12/14 10:49:50;;;;;;;11.07;8.45;;;;;;;;;;4888544;29;20287;-62
2020/12/14 10:52:16;;;;;;;9.82;8.73;;;;;;;;;;4884598;29;20267;-63
2020/12/14 10:54:41;;;;;;;11.23;9.05;;;;;;;;;;4883326;29;20763;-64
2020/12/14 10:57:06;;;;;;;10.13;8.57;;;;;;;;;;4891414;29;20213;-62
2020/12/14 10:59:31;;;;;;;11.38;7.85;;;;;;;;;;4890662;29;20201;-62
2020/12/14 11:01:57;;;;;;;10.40;8.18;;;;;;;;;;4896915;29;20224;-62
2020/12/14 11:04:23;;;;;;;11.27;8.73;;;;;;;;;;4883569;29;20220;-63
2020/12/14 11:06:48;;;;;;;11.35;8.45;;;;;;;;;;4883266;29;20296;-62
2020/12/14 11:09:13;;;;;;;9.43;8.40;;;;;;;;;;4883732;29;20699;-62
2020/12/14 11:11:39;;;;;;;11.40;9.00;;;;;;;;;;4899522;29;20981;-62
2020/12/14 11:14:04;;;;;;;9.85;8.73;;;;;;;;;;4894300;29;20439;-61
2020/12/14 11:16:31;;;;;;;12.55;8.25;;;;;;;;;;4891155;29;20193;-62
2020/12/14 11:18:57;;;;;;;8.75;7.65;;;;;;;;;;4886354;29;20200;-61
2020/12/14 11:21:22;;;;;;;8.35;6.78;;;;;;;;;;4897792;29;20199;-62
2020/12/14 11:23:48;;;;;;;9.70;7.90;;;;;;;;;;4895986;29;20882;-62
2020/12/14 11:26:13;;;;;;;9.13;7.70;;;;;;;;;;4887610;29;20275;-62
2020/12/14 11:28:39;;;;;;;9.40;7.60;;;;;;;;;;4885922;29;20344;-62
2020/12/14 11:31:06;;;;;;;8.30;7.28;;;;;;;;;;4894464;29;20196;-62
2020/12/14 11:33:31;;;;;;;10.45;7.60;;;;;;;;;;4887067;29;20196;-62
2020/12/14 11:35:56;;;;;;;9.32;7.57;;;;;;;;;;4892800;29;20193;-62
2020/12/14 11:38:22;;;;;;;10.57;7.82;;;;;;;;;;4897826;29;20219;-62
2020/12/14 11:40:47;;;;;;;13.43;7.50;;;;;;;;;;4886768;29;20649;-62
2020/12/14 11:43:12;;;;;;;9.45;7.20;;;;;;;;;;4887235;29;20272;-63
2020/12/14 11:45:38;;;;;;;9.25;7.45;;;;;;;;;;4890087;29;20944;-63
2020/12/14 11:48:03;;;;;;;9.90;7.72;;;;;;;;;;4891347;29;20251;-63
2020/12/14 11:50:28;;;;;;;11.65;8.18;;;;;;;;;;4894309;29;20569;-62
2020/12/14 11:52:55;;;;;;;9.68;7.75;;;;;;;;;;4899245;29;20211;-63
2020/12/14 11:55:21;;;;;;;9.43;7.70;;;;;;;;;;4885527;29;20238;-63
2020/12/14 11:57:46;;;;;;;12.73;7.65;;;;;;;;;;4889828;29;20205;-62
2020/12/14 12:00:12;;;;;;;10.35;6.90;;;;;;;;;;4889902;29;20236;-63
2020/12/14 12:02:37;;;;;;;8.80;7.13;;;;;;;;;;4889999;29;20185;-62
2020/12/14 12:05:03;;;;;;;7.80;6.93;;;;;;;;;;4896735;29;20222;-62
2020/12/14 12:07:29;;;;;;;8.88;7.38;;;;;;;;;;4889490;29;20230;-62
2020/12/14 12:09:54;;;;;;;8.82;7.18;;;;;;;;;;4896292;29;20220;-62
2020/12/14 12:12:19;;;;;;;7.47;6.50;;;;;;;;;;4887971;29;20374;-62
2020/12/14 12:14:44;;;;;;;9.20;7.13;;;;;;;;;;4891853;29;20287;-62
2020/12/14 12:17:10;;;;;;;7.97;6.03;;;;;;;;;;4887765;29;21019;-62
2020/12/14 12:19:35;;;;;;;8.32;6.57;;;;;;;;;;4896475;29;20878;-62
2020/12/14 12:22:01;;;;;;;7.90;6.53;;;;;;;;;;4889589;29;20208;-62
2020/12/14 12:24:27;;;;;;;8.52;6.72;;;;;;;;;;4886736;29;20332;-62
2020/12/14 12:26:52;;;;;;;7.72;6.78;;;;;;;;;;4885884;29;21057;-62
2020/12/14 12:29:18;;;;;;;7.32;6.40;;;;;;;;;;4894495;29;20235;-62
2020/12/14 12:31:50;;;;;;;8.90;6.70;;;;;;;;;;4892872;29;20193;-63
2020/12/14 12:34:15;;;;;;;7.82;6.45;;;;;;;;;;4903453;29;20244;-63
2020/12/14 12:36:41;;;;;;;8.35;6.45;;;;;;;;;;4896421;29;20913;-62
2020/12/14 12:39:06;;;;;;;8.07;6.28;;;;;;;;;;4891097;29;20189;-63
2020/12/14 12:41:31;;;;;;;10.32;6.28;;;;;;;;;;4898268;29;20194;-63
2020/12/14 12:43:57;;;;;;;6.57;5.32;;;;;;;;;;4889509;29;20921;-63
2020/12/14 12:46:26;;;;;;;6.07;5.40;;;;;;;;;;4889953;29;20192;-63
2020/12/14 12:48:51;;;;;;;5.70;5.13;;;;;;;;;;4897524;29;20197;-62
2020/12/14 12:51:16;;;;;;;7.32;5.30;;;;;;;;;;4895060;29;20208;-62
2020/12/14 12:53:41;;;;;;;6.90;5.22;;;;;;;;;;4891914;29;20308;-62
2020/12/14 12:56:07;;;;;;;6.70;5.15;;;;;;;;;;4887551;29;20212;-62
2020/12/14 12:58:32;;;;;;;7.60;5.03;;;;;;;;;;4890250;29;20331;-62
2020/12/14 13:00:57;;;;;;;5.78;4.28;;;;;;;;;;4895535;29;20570;-62
2020/12/14 13:03:22;;;;;;;5.53;4.40;;;;;;;;;;4885636;29;20209;-62
2020/12/14 13:05:48;;;;;;;5.90;4.93;;;;;;;;;;4898286;29;20239;-62
2020/12/14 13:08:13;;;;;;;5.93;4.50;;;;;;;;;;4896912;29;20223;-63
2020/12/14 13:10:38;;;;;;;6.28;4.65;;;;;;;;;;4903656;29;20628;-63
2020/12/14 13:13:04;;;;;;;5.45;4.75;;;;;;;;;;4895891;29;20223;-62
2020/12/14 13:15:29;;;;;;;4.85;4.40;;;;;;;;;;4884777;29;20744;-62
2020/12/14 13:17:55;;;;;;;5.78;5.03;;;;;;;;;;4885453;29;20232;-68
2020/12/14 13:20:20;;;;;;;5.22;4.65;;;;;;;;;;4894490;29;21113;-63
2020/12/14 13:22:45;;;;;;;5.03;4.55;;;;;;;;;;4896425;29;20575;-62
2020/12/14 13:25:11;;;;;;;8.88;4.43;;;;;;;;;;4891608;29;20208;-62
2020/12/14 13:27:36;;;;;;;7.07;4.43;;;;;;;;;;4888691;29;20275;-62
2020/12/14 13:30:02;;;;;;;5.65;4.82;;;;;;;;;;4889485;29;20571;-62
2020/12/14 13:32:28;;;;;;;6.03;4.93;;;;;;;;;;4886314;29;20760;-62
2020/12/14 13:34:55;;;;;;;5.18;4.68;;;;;;;;;;4889207;29;20303;-62
2020/12/14 13:37:21;;;;;;;5.90;4.50;;;;;;;;;;4885636;29;20220;-61
2020/12/14 13:39:46;;;;;;;5.07;4.57;;;;;;;;;;4890899;29;20204;-62
2020/12/14 13:42:11;;;;;;;7.22;5.30;;;;;;;;;;4895907;29;20201;-62
2020/12/14 13:44:36;;;;;;;5.47;4.72;;;;;;;;;;4890203;29;20298;-62
2020/12/14 13:47:02;;;;;;;5.53;4.45;;;;;;;;;;4894751;29;20215;-62
2020/12/14 13:49:27;;;;;;;5.70;4.90;;;;;;;;;;4893086;29;20272;-62
2020/12/14 13:51:55;;;;;;;5.18;4.68;;;;;;;;;;4900011;29;20315;-60
2020/12/14 13:54:20;;;;;;;5.00;4.50;;;;;;;;;;4893070;29;20193;-60
2020/12/14 13:56:46;;;;;;;5.70;4.35;;;;;;;;;;4890676;29;20217;-60
2020/12/14 13:59:11;;;;;;;5.15;4.40;;;;;;;;;;4891748;29;20290;-60
2020/12/14 14:01:36;;;;;;;7.15;4.40;;;;;;;;;;4892290;29;20188;-60
2020/12/14 14:04:01;;;;;;;5.95;4.28;;;;;;;;;;4891849;29;20208;-60
2020/12/14 14:06:27;;;;;;;5.15;4.65;;;;;;;;;;4884297;29;20313;-60
2020/12/14 14:08:52;;;;;;;5.25;4.72;;;;;;;;;;4885009;29;20284;-60
2020/12/14 14:11:17;;;;;;;7.28;4.53;;;;;;;;;;4892167;29;20196;-60
2020/12/14 14:13:42;;;;;;;5.00;4.50;;;;;;;;;;4886919;29;20192;-60
2020/12/14 14:16:09;;;;;;;5.78;4.70;;;;;;;;;;4886864;29;20211;-60
2020/12/14 14:18:35;;;;;;;4.68;4.18;;;;;;;;;;4891514;29;21066;-60
2020/12/14 14:21:00;;;;;;;4.70;4.10;;;;;;;;;;4887984;29;20209;-60